sensor_id;sensor_type;location;lat;lon;timestamp;P1;durP1;ratioP1;P2;durP2;ratioP2
61038;SDS011;46919;45.816;3.104;2023-05-10T00:02:23;6.30;;;1.40;;
61038;SDS011;46919;45.816;3.104;2023-05-10T00:04:49;4.07;;;1.20;;
61038;SDS011;46919;45.816;3.104;2023-05-10T00:07:14;14.75;;;2.15;;
61038;SDS011;46919;45.816;3.104;2023-05-10T00:09:42;4.28;;;1.20;;
61038;SDS011;46919;45.816;3.104;2023-05-10T00:12:07;5.38;;;1.38;;
61038;SDS011;46919;45.816;3.104;2023-05-10T00:14:33;7.80;;;1.80;;
61038;SDS011;46919;45.816;3.104;2023-05-10T00:16:58;7.35;;;1.58;;
61038;SDS011;46919;45.816;3.104;2023-05-10T00:19:24;6.70;;;1.20;;
61038;SDS011;46919;45.816;3.104;2023-05-10T00:21:49;6.80;;;1.40;;
61038;SDS011;46919;45.816;3.104;2023-05-10T00:24:15;11.00;;;1.77;;
61038;SDS011;46919;45.816;3.104;2023-05-10T00:26:40;4.13;;;1.10;;
61038;SDS011;46919;45.816;3.104;2023-05-10T00:29:07;10.10;;;1.45;;
61038;SDS011;46919;45.816;3.104;2023-05-10T00:31:32;5.20;;;1.30;;
61038;SDS011;46919;45.816;3.104;2023-05-10T00:33:58;9.02;;;1.83;;
61038;SDS011;46919;45.816;3.104;2023-05-10T00:36:23;8.90;;;1.85;;
61038;SDS011;46919;45.816;3.104;2023-05-10T00:38:49;6.20;;;1.63;;
61038;SDS011;46919;45.816;3.104;2023-05-10T00:41:14;9.82;;;1.90;;
61038;SDS011;46919;45.816;3.104;2023-05-10T00:43:40;7.93;;;1.60;;
61038;SDS011;46919;45.816;3.104;2023-05-10T00:46:06;5.07;;;1.30;;
61038;SDS011;46919;45.816;3.104;2023-05-10T00:48:32;9.25;;;1.40;;
61038;SDS011;46919;45.816;3.104;2023-05-10T00:50:58;8.60;;;1.25;;
61038;SDS011;46919;45.816;3.104;2023-05-10T00:53:24;7.38;;;1.35;;
61038;SDS011;46919;45.816;3.104;2023-05-10T00:55:49;8.10;;;1.60;;
61038;SDS011;46919;45.816;3.104;2023-05-10T00:58:16;7.97;;;1.50;;
61038;SDS011;46919;45.816;3.104;2023-05-10T01:00:42;7.78;;;1.45;;
61038;SDS011;46919;45.816;3.104;2023-05-10T01:03:11;6.95;;;1.35;;
61038;SDS011;46919;45.816;3.104;2023-05-10T01:05:37;9.13;;;1.25;;
61038;SDS011;46919;45.816;3.104;2023-05-10T01:08:02;7.75;;;1.60;;
61038;SDS011;46919;45.816;3.104;2023-05-10T01:10:28;10.20;;;1.50;;
61038;SDS011;46919;45.816;3.104;2023-05-10T01:12:54;6.38;;;1.20;;
61038;SDS011;46919;45.816;3.104;2023-05-10T01:15:19;5.13;;;1.15;;
61038;SDS011;46919;45.816;3.104;2023-05-10T01:17:45;6.75;;;1.40;;
61038;SDS011;46919;45.816;3.104;2023-05-10T01:20:13;7.07;;;0.82;;
61038;SDS011;46919;45.816;3.104;2023-05-10T01:34:35;6.57;;;1.35;;
61038;SDS011;46919;45.816;3.104;2023-05-10T01:37:13;9.35;;;1.48;;
61038;SDS011;46919;45.816;3.104;2023-05-10T01:40:02;6.45;;;1.52;;
61038;SDS011;46919;45.816;3.104;2023-05-10T01:42:43;5.72;;;1.05;;
61038;SDS011;46919;45.816;3.104;2023-05-10T01:47:43;5.53;;;1.35;;
61038;SDS011;46919;45.816;3.104;2023-05-10T01:50:10;8.90;;;1.23;;
61038;SDS011;46919;45.816;3.104;2023-05-10T01:52:44;8.70;;;1.17;;
61038;SDS011;46919;45.816;3.104;2023-05-10T01:55:16;7.97;;;1.45;;
61038;SDS011;46919;45.816;3.104;2023-05-10T01:57:46;7.05;;;1.83;;
61038;SDS011;46919;45.816;3.104;2023-05-10T02:00:13;5.60;;;1.10;;
61038;SDS011;46919;45.816;3.104;2023-05-10T02:02:40;6.63;;;1.20;;
61038;SDS011;46919;45.816;3.104;2023-05-10T02:05:12;7.68;;;1.58;;
61038;SDS011;46919;45.816;3.104;2023-05-10T02:07:39;5.40;;;1.20;;
61038;SDS011;46919;45.816;3.104;2023-05-10T02:10:06;7.25;;;1.15;;
61038;SDS011;46919;45.816;3.104;2023-05-10T02:12:36;6.30;;;1.85;;
61038;SDS011;46919;45.816;3.104;2023-05-10T02:15:06;11.70;;;1.38;;
61038;SDS011;46919;45.816;3.104;2023-05-10T02:17:33;8.50;;;1.23;;
61038;SDS011;46919;45.816;3.104;2023-05-10T02:20:01;4.75;;;1.13;;
61038;SDS011;46919;45.816;3.104;2023-05-10T02:22:28;8.90;;;1.98;;
61038;SDS011;46919;45.816;3.104;2023-05-10T02:24:57;8.95;;;1.58;;
61038;SDS011;46919;45.816;3.104;2023-05-10T02:27:24;7.35;;;1.60;;
61038;SDS011;46919;45.816;3.104;2023-05-10T02:29:52;8.30;;;1.50;;
61038;SDS011;46919;45.816;3.104;2023-05-10T02:32:19;7.20;;;1.10;;
61038;SDS011;46919;45.816;3.104;2023-05-10T02:34:47;12.75;;;1.45;;
61038;SDS011;46919;45.816;3.104;2023-05-10T02:37:17;6.07;;;1.50;;
61038;SDS011;46919;45.816;3.104;2023-05-10T02:39:46;10.38;;;1.75;;
61038;SDS011;46919;45.816;3.104;2023-05-10T02:42:13;7.22;;;1.27;;
61038;SDS011;46919;45.816;3.104;2023-05-10T02:44:42;9.13;;;1.52;;
61038;SDS011;46919;45.816;3.104;2023-05-10T02:47:10;8.45;;;1.92;;
61038;SDS011;46919;45.816;3.104;2023-05-10T02:49:36;8.75;;;1.42;;
61038;SDS011;46919;45.816;3.104;2023-05-10T02:52:01;6.97;;;1.55;;
61038;SDS011;46919;45.816;3.104;2023-05-10T02:54:32;8.15;;;1.58;;
61038;SDS011;46919;45.816;3.104;2023-05-10T02:57:04;6.07;;;1.25;;
61038;SDS011;46919;45.816;3.104;2023-05-10T02:59:30;5.65;;;1.45;;
61038;SDS011;46919;45.816;3.104;2023-05-10T03:01:57;4.93;;;1.20;;
61038;SDS011;46919;45.816;3.104;2023-05-10T03:04:25;7.22;;;1.75;;
61038;SDS011;46919;45.816;3.104;2023-05-10T03:06:50;7.57;;;1.40;;
61038;SDS011;46919;45.816;3.104;2023-05-10T03:09:15;7.57;;;1.35;;
61038;SDS011;46919;45.816;3.104;2023-05-10T03:20:24;4.90;;;1.00;;
61038;SDS011;46919;45.816;3.104;2023-05-10T03:23:16;6.85;;;1.38;;
61038;SDS011;46919;45.816;3.104;2023-05-10T03:25:49;6.65;;;1.17;;
61038;SDS011;46919;45.816;3.104;2023-05-10T03:28:16;5.40;;;1.35;;
61038;SDS011;46919;45.816;3.104;2023-05-10T03:30:43;5.72;;;1.10;;
61038;SDS011;46919;45.816;3.104;2023-05-10T03:33:09;4.15;;;1.25;;
61038;SDS011;46919;45.816;3.104;2023-05-10T03:35:35;5.78;;;1.15;;
61038;SDS011;46919;45.816;3.104;2023-05-10T03:38:01;5.70;;;1.40;;
61038;SDS011;46919;45.816;3.104;2023-05-10T03:40:27;7.15;;;1.45;;
61038;SDS011;46919;45.816;3.104;2023-05-10T03:42:57;8.18;;;1.00;;
61038;SDS011;46919;45.816;3.104;2023-05-10T03:45:23;9.65;;;1.50;;
61038;SDS011;46919;45.816;3.104;2023-05-10T03:47:48;6.55;;;1.17;;
61038;SDS011;46919;45.816;3.104;2023-05-10T03:50:14;5.35;;;1.15;;
61038;SDS011;46919;45.816;3.104;2023-05-10T03:52:39;5.10;;;1.10;;
61038;SDS011;46919;45.816;3.104;2023-05-10T03:55:05;6.25;;;0.90;;
61038;SDS011;46919;45.816;3.104;2023-05-10T03:57:31;8.45;;;1.17;;
61038;SDS011;46919;45.816;3.104;2023-05-10T03:59:57;10.73;;;1.10;;
61038;SDS011;46919;45.816;3.104;2023-05-10T04:02:22;6.00;;;1.00;;
61038;SDS011;46919;45.816;3.104;2023-05-10T04:04:48;4.57;;;1.00;;
61038;SDS011;46919;45.816;3.104;2023-05-10T04:07:13;2.22;;;1.00;;
61038;SDS011;46919;45.816;3.104;2023-05-10T04:09:39;5.25;;;0.98;;
61038;SDS011;46919;45.816;3.104;2023-05-10T04:12:05;3.65;;;0.77;;
61038;SDS011;46919;45.816;3.104;2023-05-10T04:14:30;4.80;;;1.10;;
61038;SDS011;46919;45.816;3.104;2023-05-10T04:16:56;4.07;;;0.80;;
61038;SDS011;46919;45.816;3.104;2023-05-10T04:19:21;10.07;;;1.30;;
61038;SDS011;46919;45.816;3.104;2023-05-10T04:21:46;7.32;;;1.00;;
61038;SDS011;46919;45.816;3.104;2023-05-10T04:24:12;7.57;;;1.00;;
61038;SDS011;46919;45.816;3.104;2023-05-10T04:26:37;4.18;;;0.85;;
61038;SDS011;46919;45.816;3.104;2023-05-10T04:29:03;8.40;;;1.38;;
61038;SDS011;46919;45.816;3.104;2023-05-10T04:31:28;5.50;;;1.10;;
61038;SDS011;46919;45.816;3.104;2023-05-10T04:33:53;4.93;;;1.02;;
61038;SDS011;46919;45.816;3.104;2023-05-10T04:36:19;4.20;;;0.95;;
61038;SDS011;46919;45.816;3.104;2023-05-10T04:38:44;5.22;;;0.90;;
61038;SDS011;46919;45.816;3.104;2023-05-10T04:41:10;3.67;;;0.90;;
61038;SDS011;46919;45.816;3.104;2023-05-10T04:43:36;5.57;;;1.00;;
61038;SDS011;46919;45.816;3.104;2023-05-10T04:46:03;3.05;;;0.90;;
61038;SDS011;46919;45.816;3.104;2023-05-10T04:48:30;4.07;;;1.00;;
61038;SDS011;46919;45.816;3.104;2023-05-10T04:50:55;7.45;;;1.17;;
61038;SDS011;46919;45.816;3.104;2023-05-10T04:53:21;4.10;;;1.00;;
61038;SDS011;46919;45.816;3.104;2023-05-10T04:55:47;4.13;;;0.70;;
61038;SDS011;46919;45.816;3.104;2023-05-10T04:58:13;4.32;;;0.90;;
61038;SDS011;46919;45.816;3.104;2023-05-10T05:00:38;6.63;;;1.08;;
61038;SDS011;46919;45.816;3.104;2023-05-10T05:03:04;5.38;;;0.98;;
61038;SDS011;46919;45.816;3.104;2023-05-10T05:05:30;8.88;;;1.10;;
61038;SDS011;46919;45.816;3.104;2023-05-10T05:07:55;8.45;;;1.05;;
61038;SDS011;46919;45.816;3.104;2023-05-10T05:10:21;6.93;;;1.38;;
61038;SDS011;46919;45.816;3.104;2023-05-10T05:12:46;5.85;;;1.17;;
61038;SDS011;46919;45.816;3.104;2023-05-10T05:15:12;7.80;;;1.20;;
61038;SDS011;46919;45.816;3.104;2023-05-10T05:17:37;8.38;;;1.42;;
61038;SDS011;46919;45.816;3.104;2023-05-10T05:20:03;4.47;;;1.10;;
61038;SDS011;46919;45.816;3.104;2023-05-10T05:22:28;8.10;;;1.20;;
61038;SDS011;46919;45.816;3.104;2023-05-10T05:24:54;6.45;;;1.30;;
61038;SDS011;46919;45.816;3.104;2023-05-10T05:27:20;9.80;;;1.27;;
61038;SDS011;46919;45.816;3.104;2023-05-10T05:29:49;8.02;;;1.40;;
61038;SDS011;46919;45.816;3.104;2023-05-10T05:32:15;7.03;;;1.00;;
61038;SDS011;46919;45.816;3.104;2023-05-10T05:34:40;10.15;;;1.52;;
61038;SDS011;46919;45.816;3.104;2023-05-10T05:37:06;6.78;;;1.13;;
61038;SDS011;46919;45.816;3.104;2023-05-10T05:39:31;6.82;;;0.98;;
61038;SDS011;46919;45.816;3.104;2023-05-10T05:41:56;6.20;;;1.25;;
61038;SDS011;46919;45.816;3.104;2023-05-10T05:44:23;10.52;;;1.90;;
61038;SDS011;46919;45.816;3.104;2023-05-10T05:46:48;6.05;;;1.25;;
61038;SDS011;46919;45.816;3.104;2023-05-10T05:49:14;7.65;;;1.40;;
61038;SDS011;46919;45.816;3.104;2023-05-10T05:51:39;9.82;;;1.40;;
61038;SDS011;46919;45.816;3.104;2023-05-10T05:54:05;9.55;;;1.30;;
61038;SDS011;46919;45.816;3.104;2023-05-10T05:56:31;6.10;;;1.40;;
61038;SDS011;46919;45.816;3.104;2023-05-10T05:58:56;6.03;;;1.17;;
61038;SDS011;46919;45.816;3.104;2023-05-10T06:01:22;5.60;;;1.00;;
61038;SDS011;46919;45.816;3.104;2023-05-10T06:03:47;8.60;;;1.30;;
61038;SDS011;46919;45.816;3.104;2023-05-10T06:06:12;5.25;;;1.02;;
61038;SDS011;46919;45.816;3.104;2023-05-10T06:08:38;7.78;;;1.60;;
61038;SDS011;46919;45.816;3.104;2023-05-10T06:11:03;5.90;;;1.15;;
61038;SDS011;46919;45.816;3.104;2023-05-10T06:13:29;6.55;;;1.23;;
61038;SDS011;46919;45.816;3.104;2023-05-10T06:15:57;6.32;;;1.40;;
61038;SDS011;46919;45.816;3.104;2023-05-10T06:18:23;5.05;;;1.25;;
61038;SDS011;46919;45.816;3.104;2023-05-10T06:20:49;9.18;;;1.55;;
61038;SDS011;46919;45.816;3.104;2023-05-10T06:23:15;9.45;;;1.50;;
61038;SDS011;46919;45.816;3.104;2023-05-10T06:25:40;10.05;;;1.75;;
61038;SDS011;46919;45.816;3.104;2023-05-10T06:28:06;3.33;;;1.08;;
61038;SDS011;46919;45.816;3.104;2023-05-10T06:30:31;8.65;;;1.48;;
61038;SDS011;46919;45.816;3.104;2023-05-10T06:32:56;6.90;;;1.40;;
61038;SDS011;46919;45.816;3.104;2023-05-10T06:35:22;6.97;;;1.20;;
61038;SDS011;46919;45.816;3.104;2023-05-10T06:37:47;5.10;;;1.20;;
61038;SDS011;46919;45.816;3.104;2023-05-10T06:40:13;8.10;;;1.20;;
61038;SDS011;46919;45.816;3.104;2023-05-10T06:42:39;8.32;;;1.60;;
61038;SDS011;46919;45.816;3.104;2023-05-10T06:45:04;6.43;;;0.93;;
61038;SDS011;46919;45.816;3.104;2023-05-10T06:47:30;6.95;;;1.15;;
61038;SDS011;46919;45.816;3.104;2023-05-10T06:49:56;7.03;;;1.25;;
61038;SDS011;46919;45.816;3.104;2023-05-10T06:52:22;7.72;;;1.00;;
61038;SDS011;46919;45.816;3.104;2023-05-10T06:54:48;2.45;;;0.80;;
61038;SDS011;46919;45.816;3.104;2023-05-10T06:57:13;7.68;;;1.30;;
61038;SDS011;46919;45.816;3.104;2023-05-10T06:59:39;5.72;;;1.15;;
61038;SDS011;46919;45.816;3.104;2023-05-10T07:02:04;7.30;;;1.30;;
61038;SDS011;46919;45.816;3.104;2023-05-10T07:04:30;6.60;;;1.23;;
61038;SDS011;46919;45.816;3.104;2023-05-10T07:06:56;6.63;;;1.60;;
61038;SDS011;46919;45.816;3.104;2023-05-10T07:09:22;4.80;;;0.80;;
61038;SDS011;46919;45.816;3.104;2023-05-10T07:11:49;6.63;;;1.27;;
61038;SDS011;46919;45.816;3.104;2023-05-10T07:14:14;6.95;;;1.10;;
61038;SDS011;46919;45.816;3.104;2023-05-10T07:16:40;3.67;;;0.98;;
61038;SDS011;46919;45.816;3.104;2023-05-10T07:19:05;3.95;;;0.88;;
61038;SDS011;46919;45.816;3.104;2023-05-10T07:21:31;5.20;;;0.98;;
61038;SDS011;46919;45.816;3.104;2023-05-10T07:23:57;6.05;;;1.20;;
61038;SDS011;46919;45.816;3.104;2023-05-10T07:26:22;5.72;;;1.13;;
61038;SDS011;46919;45.816;3.104;2023-05-10T07:28:49;4.97;;;1.02;;
61038;SDS011;46919;45.816;3.104;2023-05-10T07:31:14;6.72;;;1.45;;
61038;SDS011;46919;45.816;3.104;2023-05-10T07:33:40;6.22;;;1.42;;
61038;SDS011;46919;45.816;3.104;2023-05-10T07:36:05;7.13;;;1.60;;
61038;SDS011;46919;45.816;3.104;2023-05-10T07:38:31;6.78;;;1.23;;
61038;SDS011;46919;45.816;3.104;2023-05-10T07:40:56;6.35;;;1.25;;
61038;SDS011;46919;45.816;3.104;2023-05-10T07:43:22;8.50;;;1.48;;
61038;SDS011;46919;45.816;3.104;2023-05-10T07:45:47;6.82;;;1.20;;
61038;SDS011;46919;45.816;3.104;2023-05-10T07:48:12;7.75;;;1.45;;
61038;SDS011;46919;45.816;3.104;2023-05-10T07:50:38;8.40;;;1.42;;
61038;SDS011;46919;45.816;3.104;2023-05-10T07:53:03;10.02;;;1.30;;
61038;SDS011;46919;45.816;3.104;2023-05-10T07:55:29;5.57;;;1.00;;
61038;SDS011;46919;45.816;3.104;2023-05-10T07:57:54;4.50;;;1.40;;
61038;SDS011;46919;45.816;3.104;2023-05-10T08:00:20;7.88;;;1.08;;
61038;SDS011;46919;45.816;3.104;2023-05-10T08:02:45;5.47;;;0.90;;
61038;SDS011;46919;45.816;3.104;2023-05-10T08:05:11;5.97;;;0.90;;
61038;SDS011;46919;45.816;3.104;2023-05-10T08:07:37;4.20;;;0.90;;
61038;SDS011;46919;45.816;3.104;2023-05-10T08:10:02;6.45;;;1.00;;
61038;SDS011;46919;45.816;3.104;2023-05-10T08:12:29;6.00;;;1.08;;
61038;SDS011;46919;45.816;3.104;2023-05-10T08:14:55;6.30;;;1.10;;
61038;SDS011;46919;45.816;3.104;2023-05-10T08:17:20;4.35;;;0.85;;
61038;SDS011;46919;45.816;3.104;2023-05-10T08:19:46;4.95;;;0.77;;
61038;SDS011;46919;45.816;3.104;2023-05-10T08:22:11;5.00;;;0.80;;
61038;SDS011;46919;45.816;3.104;2023-05-10T08:24:37;4.47;;;1.00;;
61038;SDS011;46919;45.816;3.104;2023-05-10T08:27:06;3.53;;;1.10;;
61038;SDS011;46919;45.816;3.104;2023-05-10T08:29:33;6.32;;;1.02;;
61038;SDS011;46919;45.816;3.104;2023-05-10T08:31:58;4.63;;;0.80;;
61038;SDS011;46919;45.816;3.104;2023-05-10T08:34:23;2.63;;;0.90;;
61038;SDS011;46919;45.816;3.104;2023-05-10T08:36:50;5.20;;;1.20;;
61038;SDS011;46919;45.816;3.104;2023-05-10T08:39:15;7.13;;;1.00;;
61038;SDS011;46919;45.816;3.104;2023-05-10T08:41:41;4.25;;;0.80;;
61038;SDS011;46919;45.816;3.104;2023-05-10T08:44:09;6.35;;;0.93;;
61038;SDS011;46919;45.816;3.104;2023-05-10T08:46:35;9.30;;;1.25;;
61038;SDS011;46919;45.816;3.104;2023-05-10T08:49:04;5.22;;;0.90;;
61038;SDS011;46919;45.816;3.104;2023-05-10T08:51:34;5.95;;;1.25;;
61038;SDS011;46919;45.816;3.104;2023-05-10T08:54:02;6.85;;;0.95;;
61038;SDS011;46919;45.816;3.104;2023-05-10T08:56:29;5.32;;;1.25;;
61038;SDS011;46919;45.816;3.104;2023-05-10T08:58:54;5.53;;;1.20;;
61038;SDS011;46919;45.816;3.104;2023-05-10T09:01:21;6.25;;;1.20;;
61038;SDS011;46919;45.816;3.104;2023-05-10T09:03:47;5.22;;;1.10;;
61038;SDS011;46919;45.816;3.104;2023-05-10T09:06:13;4.35;;;0.98;;
61038;SDS011;46919;45.816;3.104;2023-05-10T09:08:40;3.90;;;0.88;;
61038;SDS011;46919;45.816;3.104;2023-05-10T09:11:07;5.75;;;1.20;;
61038;SDS011;46919;45.816;3.104;2023-05-10T09:13:35;4.68;;;1.50;;
61038;SDS011;46919;45.816;3.104;2023-05-10T09:16:02;5.20;;;0.90;;
61038;SDS011;46919;45.816;3.104;2023-05-10T09:18:28;7.22;;;1.02;;
61038;SDS011;46919;45.816;3.104;2023-05-10T09:20:54;4.30;;;1.27;;
61038;SDS011;46919;45.816;3.104;2023-05-10T09:23:19;5.70;;;1.08;;
61038;SDS011;46919;45.816;3.104;2023-05-10T09:25:45;5.60;;;1.20;;
61038;SDS011;46919;45.816;3.104;2023-05-10T09:28:10;4.72;;;1.15;;
61038;SDS011;46919;45.816;3.104;2023-05-10T09:30:36;4.25;;;0.88;;
61038;SDS011;46919;45.816;3.104;2023-05-10T09:33:02;5.32;;;0.90;;
61038;SDS011;46919;45.816;3.104;2023-05-10T09:35:29;7.22;;;1.00;;
61038;SDS011;46919;45.816;3.104;2023-05-10T09:38:00;7.03;;;1.13;;
61038;SDS011;46919;45.816;3.104;2023-05-10T09:40:27;5.50;;;1.00;;
61038;SDS011;46919;45.816;3.104;2023-05-10T09:43:05;8.27;;;1.10;;
61038;SDS011;46919;45.816;3.104;2023-05-10T09:45:33;3.97;;;1.10;;
61038;SDS011;46919;45.816;3.104;2023-05-10T09:48:00;3.67;;;0.95;;
61038;SDS011;46919;45.816;3.104;2023-05-10T09:50:27;7.10;;;1.08;;
61038;SDS011;46919;45.816;3.104;2023-05-10T09:52:54;8.45;;;1.00;;
61038;SDS011;46919;45.816;3.104;2023-05-10T09:55:43;3.88;;;1.00;;
61038;SDS011;46919;45.816;3.104;2023-05-10T09:58:10;7.35;;;1.55;;
61038;SDS011;46919;45.816;3.104;2023-05-10T10:00:40;9.55;;;1.48;;
61038;SDS011;46919;45.816;3.104;2023-05-10T10:03:13;5.70;;;1.10;;
61038;SDS011;46919;45.816;3.104;2023-05-10T10:05:43;8.30;;;1.30;;
61038;SDS011;46919;45.816;3.104;2023-05-10T10:08:09;8.68;;;2.13;;
61038;SDS011;46919;45.816;3.104;2023-05-10T10:10:36;8.93;;;1.20;;
61038;SDS011;46919;45.816;3.104;2023-05-10T10:13:01;7.82;;;1.10;;
61038;SDS011;46919;45.816;3.104;2023-05-10T10:15:27;5.90;;;1.35;;
61038;SDS011;46919;45.816;3.104;2023-05-10T10:17:53;5.88;;;1.38;;
61038;SDS011;46919;45.816;3.104;2023-05-10T10:20:19;5.38;;;1.00;;
61038;SDS011;46919;45.816;3.104;2023-05-10T10:22:46;5.18;;;1.48;;
61038;SDS011;46919;45.816;3.104;2023-05-10T10:25:17;6.57;;;1.40;;
61038;SDS011;46919;45.816;3.104;2023-05-10T10:36:15;4.38;;;0.90;;
61038;SDS011;46919;45.816;3.104;2023-05-10T10:41:28;3.15;;;0.77;;
61038;SDS011;46919;45.816;3.104;2023-05-10T10:47:11;4.80;;;0.88;;
61038;SDS011;46919;45.816;3.104;2023-05-10T10:50:02;5.63;;;1.00;;
61038;SDS011;46919;45.816;3.104;2023-05-10T10:52:31;4.65;;;1.05;;
61038;SDS011;46919;45.816;3.104;2023-05-10T10:55:11;5.95;;;1.48;;
61038;SDS011;46919;45.816;3.104;2023-05-10T11:02:55;3.72;;;0.90;;
61038;SDS011;46919;45.816;3.104;2023-05-10T11:08:13;5.00;;;1.23;;
61038;SDS011;46919;45.816;3.104;2023-05-10T11:10:50;4.43;;;0.95;;
61038;SDS011;46919;45.816;3.104;2023-05-10T11:13:26;2.58;;;0.70;;
61038;SDS011;46919;45.816;3.104;2023-05-10T11:15:56;3.45;;;0.90;;
61038;SDS011;46919;45.816;3.104;2023-05-10T11:18:28;4.30;;;1.23;;
61038;SDS011;46919;45.816;3.104;2023-05-10T11:20:58;5.22;;;1.00;;
61038;SDS011;46919;45.816;3.104;2023-05-10T11:26:07;3.25;;;1.02;;
61038;SDS011;46919;45.816;3.104;2023-05-10T11:28:42;3.63;;;0.73;;
61038;SDS011;46919;45.816;3.104;2023-05-10T11:31:08;3.83;;;0.88;;
61038;SDS011;46919;45.816;3.104;2023-05-10T11:33:48;3.28;;;0.60;;
61038;SDS011;46919;45.816;3.104;2023-05-10T11:36:16;5.90;;;1.00;;
61038;SDS011;46919;45.816;3.104;2023-05-10T11:38:45;4.30;;;1.00;;
61038;SDS011;46919;45.816;3.104;2023-05-10T11:41:11;4.45;;;1.15;;
61038;SDS011;46919;45.816;3.104;2023-05-10T11:43:40;3.70;;;1.23;;
61038;SDS011;46919;45.816;3.104;2023-05-10T11:46:07;5.55;;;0.88;;
61038;SDS011;46919;45.816;3.104;2023-05-10T11:48:35;4.63;;;1.00;;
61038;SDS011;46919;45.816;3.104;2023-05-10T11:51:01;3.78;;;0.70;;
61038;SDS011;46919;45.816;3.104;2023-05-10T11:53:31;3.40;;;1.00;;
61038;SDS011;46919;45.816;3.104;2023-05-10T11:56:10;5.05;;;0.85;;
61038;SDS011;46919;45.816;3.104;2023-05-10T11:58:36;2.63;;;0.70;;
61038;SDS011;46919;45.816;3.104;2023-05-10T12:01:03;3.85;;;0.90;;
61038;SDS011;46919;45.816;3.104;2023-05-10T12:03:30;4.13;;;0.80;;
61038;SDS011;46919;45.816;3.104;2023-05-10T12:05:56;3.42;;;0.90;;
61038;SDS011;46919;45.816;3.104;2023-05-10T12:08:26;3.53;;;0.80;;
61038;SDS011;46919;45.816;3.104;2023-05-10T12:10:54;5.90;;;0.93;;
61038;SDS011;46919;45.816;3.104;2023-05-10T12:13:29;3.50;;;1.08;;
61038;SDS011;46919;45.816;3.104;2023-05-10T12:15:57;4.72;;;1.30;;
61038;SDS011;46919;45.816;3.104;2023-05-10T12:18:23;6.97;;;1.20;;
61038;SDS011;46919;45.816;3.104;2023-05-10T12:20:51;6.22;;;1.63;;
61038;SDS011;46919;45.816;3.104;2023-05-10T12:23:18;4.82;;;1.00;;
61038;SDS011;46919;45.816;3.104;2023-05-10T12:25:45;8.77;;;1.10;;
61038;SDS011;46919;45.816;3.104;2023-05-10T12:28:10;5.10;;;1.10;;
61038;SDS011;46919;45.816;3.104;2023-05-10T12:30:36;4.40;;;0.98;;
61038;SDS011;46919;45.816;3.104;2023-05-10T12:33:02;4.80;;;1.00;;
61038;SDS011;46919;45.816;3.104;2023-05-10T12:35:33;6.55;;;2.53;;
61038;SDS011;46919;45.816;3.104;2023-05-10T12:41:04;5.75;;;0.95;;
61038;SDS011;46919;45.816;3.104;2023-05-10T12:43:32;3.30;;;0.75;;
61038;SDS011;46919;45.816;3.104;2023-05-10T12:45:58;3.17;;;1.13;;
61038;SDS011;46919;45.816;3.104;2023-05-10T12:48:24;3.45;;;1.10;;
61038;SDS011;46919;45.816;3.104;2023-05-10T12:50:49;2.13;;;0.70;;
61038;SDS011;46919;45.816;3.104;2023-05-10T12:53:15;4.28;;;1.50;;
61038;SDS011;46919;45.816;3.104;2023-05-10T12:55:41;2.08;;;0.57;;
61038;SDS011;46919;45.816;3.104;2023-05-10T12:58:07;2.75;;;0.60;;
61038;SDS011;46919;45.816;3.104;2023-05-10T13:00:33;4.68;;;0.75;;
61038;SDS011;46919;45.816;3.104;2023-05-10T13:02:58;3.92;;;0.60;;
61038;SDS011;46919;45.816;3.104;2023-05-10T13:05:24;3.63;;;1.13;;
61038;SDS011;46919;45.816;3.104;2023-05-10T13:07:49;4.80;;;1.20;;
61038;SDS011;46919;45.816;3.104;2023-05-10T13:10:15;2.25;;;0.55;;
61038;SDS011;46919;45.816;3.104;2023-05-10T13:12:41;3.60;;;1.20;;
61038;SDS011;46919;45.816;3.104;2023-05-10T13:15:06;4.15;;;0.73;;
61038;SDS011;46919;45.816;3.104;2023-05-10T13:17:32;2.00;;;0.52;;
61038;SDS011;46919;45.816;3.104;2023-05-10T13:19:57;3.30;;;0.50;;
61038;SDS011;46919;45.816;3.104;2023-05-10T13:22:23;2.63;;;0.40;;
61038;SDS011;46919;45.816;3.104;2023-05-10T13:24:48;1.10;;;0.30;;
61038;SDS011;46919;45.816;3.104;2023-05-10T13:27:14;4.35;;;0.60;;
61038;SDS011;46919;45.816;3.104;2023-05-10T13:29:39;0.73;;;0.13;;
61038;SDS011;46919;45.816;3.104;2023-05-10T13:32:04;1.67;;;0.20;;
61038;SDS011;46919;45.816;3.104;2023-05-10T13:34:30;1.65;;;0.25;;
61038;SDS011;46919;45.816;3.104;2023-05-10T13:36:55;1.60;;;0.30;;
61038;SDS011;46919;45.816;3.104;2023-05-10T13:39:21;1.58;;;0.50;;
61038;SDS011;46919;45.816;3.104;2023-05-10T13:41:47;2.33;;;0.52;;
61038;SDS011;46919;45.816;3.104;2023-05-10T13:44:13;2.08;;;0.50;;
61038;SDS011;46919;45.816;3.104;2023-05-10T13:46:39;1.88;;;0.32;;
61038;SDS011;46919;45.816;3.104;2023-05-10T13:49:05;2.35;;;0.80;;
61038;SDS011;46919;45.816;3.104;2023-05-10T13:51:31;1.10;;;0.45;;
61038;SDS011;46919;45.816;3.104;2023-05-10T13:53:57;2.25;;;0.43;;
61038;SDS011;46919;45.816;3.104;2023-05-10T13:56:23;0.68;;;0.30;;
61038;SDS011;46919;45.816;3.104;2023-05-10T13:58:48;1.30;;;0.38;;
61038;SDS011;46919;45.816;3.104;2023-05-10T14:01:13;2.85;;;0.50;;
61038;SDS011;46919;45.816;3.104;2023-05-10T14:03:39;2.15;;;0.40;;
61038;SDS011;46919;45.816;3.104;2023-05-10T14:06:04;6.90;;;0.65;;
61038;SDS011;46919;45.816;3.104;2023-05-10T14:08:32;1.77;;;0.50;;
61038;SDS011;46919;45.816;3.104;2023-05-10T14:10:57;0.93;;;0.20;;
61038;SDS011;46919;45.816;3.104;2023-05-10T14:13:23;2.42;;;0.50;;
61038;SDS011;46919;45.816;3.104;2023-05-10T14:15:49;1.55;;;0.40;;
61038;SDS011;46919;45.816;3.104;2023-05-10T14:18:15;1.48;;;0.47;;
61038;SDS011;46919;45.816;3.104;2023-05-10T14:20:40;1.33;;;0.43;;
61038;SDS011;46919;45.816;3.104;2023-05-10T14:23:05;1.48;;;0.40;;
61038;SDS011;46919;45.816;3.104;2023-05-10T14:25:31;2.67;;;0.70;;
61038;SDS011;46919;45.816;3.104;2023-05-10T14:27:56;3.00;;;0.50;;
61038;SDS011;46919;45.816;3.104;2023-05-10T14:30:22;2.55;;;0.60;;
61038;SDS011;46919;45.816;3.104;2023-05-10T14:32:47;2.15;;;0.45;;
61038;SDS011;46919;45.816;3.104;2023-05-10T14:35:13;1.05;;;0.30;;
61038;SDS011;46919;45.816;3.104;2023-05-10T14:37:38;1.98;;;0.50;;
61038;SDS011;46919;45.816;3.104;2023-05-10T14:40:04;3.60;;;0.57;;
61038;SDS011;46919;45.816;3.104;2023-05-10T14:42:31;2.28;;;0.68;;
61038;SDS011;46919;45.816;3.104;2023-05-10T14:44:57;2.05;;;0.52;;
61038;SDS011;46919;45.816;3.104;2023-05-10T14:47:22;1.42;;;0.40;;
61038;SDS011;46919;45.816;3.104;2023-05-10T14:49:47;0.40;;;0.30;;
61038;SDS011;46919;45.816;3.104;2023-05-10T14:52:13;2.67;;;0.57;;
61038;SDS011;46919;45.816;3.104;2023-05-10T14:54:39;3.05;;;0.50;;
61038;SDS011;46919;45.816;3.104;2023-05-10T14:57:05;3.33;;;0.60;;
61038;SDS011;46919;45.816;3.104;2023-05-10T14:59:31;3.15;;;0.47;;
61038;SDS011;46919;45.816;3.104;2023-05-10T15:01:56;2.88;;;0.60;;
61038;SDS011;46919;45.816;3.104;2023-05-10T15:04:22;1.40;;;0.60;;
61038;SDS011;46919;45.816;3.104;2023-05-10T15:06:47;2.38;;;0.50;;
61038;SDS011;46919;45.816;3.104;2023-05-10T15:09:13;2.65;;;0.75;;
61038;SDS011;46919;45.816;3.104;2023-05-10T15:11:38;3.97;;;0.52;;
61038;SDS011;46919;45.816;3.104;2023-05-10T15:14:03;3.15;;;0.45;;
61038;SDS011;46919;45.816;3.104;2023-05-10T15:16:29;1.70;;;0.60;;
61038;SDS011;46919;45.816;3.104;2023-05-10T15:18:54;1.88;;;0.55;;
61038;SDS011;46919;45.816;3.104;2023-05-10T15:21:20;2.10;;;0.70;;
61038;SDS011;46919;45.816;3.104;2023-05-10T15:23:46;4.72;;;0.73;;
61038;SDS011;46919;45.816;3.104;2023-05-10T15:26:11;2.45;;;0.82;;
61038;SDS011;46919;45.816;3.104;2023-05-10T15:28:37;2.65;;;0.40;;
61038;SDS011;46919;45.816;3.104;2023-05-10T15:31:02;2.88;;;0.65;;
61038;SDS011;46919;45.816;3.104;2023-05-10T15:33:28;2.28;;;0.68;;
61038;SDS011;46919;45.816;3.104;2023-05-10T15:35:53;2.63;;;0.65;;
61038;SDS011;46919;45.816;3.104;2023-05-10T15:38:19;4.18;;;1.23;;